createdAt,value
2017-10-04T00:00:12.832Z,4.57
2017-10-04T00:02:42.075Z,10.82
2017-10-04T00:05:11.432Z,9.15
2017-10-04T00:07:40.724Z,9.30
2017-10-04T00:10:10.728Z,9.05
2017-10-04T00:12:40.023Z,6.75
2017-10-04T00:15:09.260Z,6.95
2017-10-04T00:17:38.524Z,6.12
2017-10-04T00:20:07.760Z,7.82
2017-10-04T00:22:37.019Z,7.72
2017-10-04T00:25:06.280Z,5.22
2017-10-04T00:27:36.268Z,9.77
2017-10-04T00:30:05.671Z,6.25
2017-10-04T00:32:35.776Z,7.93
2017-10-04T00:35:05.012Z,6.68
2017-10-04T00:37:34.250Z,7.60
2017-10-04T00:40:03.518Z,12.57
2017-10-04T00:42:32.788Z,4.70
2017-10-04T00:45:02.028Z,8.40
2017-10-04T00:47:31.264Z,9.27
2017-10-04T00:50:01.291Z,8.60
2017-10-04T00:52:30.535Z,12.57
2017-10-04T00:54:59.780Z,9.60
2017-10-04T00:57:29.039Z,10.05
2017-10-04T00:59:58.311Z,8.30
2017-10-04T01:02:27.558Z,10.98
2017-10-04T01:04:56.799Z,8.68
2017-10-04T01:07:26.839Z,7.37
2017-10-04T01:09:56.079Z,13.18
2017-10-04T01:12:25.347Z,10.52
2017-10-04T01:14:54.592Z,12.07
2017-10-04T01:17:23.823Z,8.50
2017-10-04T01:19:53.074Z,7.30
2017-10-04T01:22:22.315Z,7.05
2017-10-04T01:24:52.339Z,6.57
2017-10-04T01:27:22.342Z,7.80
2017-10-04T01:29:51.602Z,8.25
2017-10-04T01:32:20.835Z,4.65
2017-10-04T01:34:50.071Z,7.32
2017-10-04T01:37:19.351Z,9.18
2017-10-04T01:39:49.363Z,12.13
2017-10-04T01:42:19.563Z,6.70
2017-10-04T01:44:48.799Z,9.70
2017-10-04T01:47:18.033Z,7.22
2017-10-04T01:49:47.306Z,6.12
2017-10-04T01:52:16.550Z,7.30
2017-10-04T01:54:45.791Z,10.00
2017-10-04T01:57:15.823Z,8.05
2017-10-04T01:59:45.069Z,10.60
2017-10-04T02:02:14.308Z,7.35
2017-10-04T02:04:44.338Z,5.20
2017-10-04T02:07:13.584Z,8.48
2017-10-04T02:09:42.811Z,8.35
2017-10-04T02:12:12.834Z,11.05
2017-10-04T02:14:42.843Z,7.37
2017-10-04T02:17:12.099Z,6.57
2017-10-04T02:19:41.339Z,5.50
2017-10-04T02:22:10.571Z,10.20
2017-10-04T02:24:39.970Z,8.65
2017-10-04T02:27:09.201Z,5.95
2017-10-04T02:29:38.439Z,6.53
2017-10-04T02:32:07.719Z,5.43
2017-10-04T02:34:36.962Z,11.48
2017-10-04T02:37:06.997Z,6.65
2017-10-04T02:39:36.281Z,5.60
2017-10-04T02:42:06.276Z,5.75
2017-10-04T02:44:35.536Z,9.65
2017-10-04T02:47:04.771Z,10.05
2017-10-04T02:49:34.015Z,10.07
2017-10-04T02:52:03.280Z,6.90
2017-10-04T02:54:32.511Z,6.97
2017-10-04T02:57:02.887Z,5.82
2017-10-04T02:59:32.213Z,8.38
2017-10-04T03:02:01.445Z,5.53
2017-10-04T03:04:30.724Z,11.88
2017-10-04T03:06:59.971Z,13.65
2017-10-04T03:09:29.216Z,6.47
2017-10-04T03:11:59.257Z,6.70
2017-10-04T03:14:28.490Z,5.85
2017-10-04T03:16:57.735Z,9.73
2017-10-04T03:19:27.004Z,10.68
2017-10-04T03:21:56.235Z,5.40
2017-10-04T03:24:26.292Z,6.70
2017-10-04T03:26:55.539Z,13.25
2017-10-04T03:29:24.769Z,6.03
2017-10-04T03:31:54.799Z,11.40
2017-10-04T03:34:24.031Z,6.78
2017-10-04T03:36:53.264Z,10.88
2017-10-04T03:39:23.300Z,6.22
2017-10-04T03:41:52.527Z,7.95
2017-10-04T03:44:21.751Z,5.93
2017-10-04T03:46:51.011Z,13.45
2017-10-04T03:49:20.255Z,10.85
2017-10-04T03:51:49.506Z,7.05
2017-10-04T03:54:18.765Z,6.05
2017-10-04T03:56:47.982Z,7.65
2017-10-04T03:59:18.039Z,9.30
2017-10-04T04:01:48.053Z,10.13
2017-10-04T04:04:17.293Z,7.30
2017-10-04T04:06:46.515Z,11.07
2017-10-04T04:09:16.606Z,6.82
2017-10-04T04:11:45.875Z,6.12
2017-10-04T04:14:15.128Z,10.90
2017-10-04T04:16:44.782Z,9.07
2017-10-04T04:19:14.090Z,7.93
2017-10-04T04:21:44.051Z,11.25
2017-10-04T04:24:13.352Z,9.30
2017-10-04T04:26:42.603Z,6.20
2017-10-04T04:29:11.841Z,8.30
2017-10-04T04:31:41.102Z,10.05
2017-10-04T04:34:10.392Z,9.60
2017-10-04T04:36:39.634Z,14.52
2017-10-04T04:39:08.896Z,11.68
2017-10-04T04:41:38.478Z,11.70
2017-10-04T04:44:07.724Z,13.15
2017-10-04T04:46:36.988Z,12.75
2017-10-04T04:49:07.049Z,13.27
2017-10-04T04:51:36.327Z,14.60
2017-10-04T04:54:05.607Z,14.43
2017-10-04T04:56:34.851Z,9.70
2017-10-04T04:59:04.099Z,11.38
2017-10-04T05:01:34.140Z,8.13
2017-10-04T05:04:03.363Z,12.00
2017-10-04T05:06:32.604Z,14.05
2017-10-04T05:09:01.868Z,11.30
2017-10-04T05:11:31.111Z,15.15
2017-10-04T05:14:00.556Z,15.07
2017-10-04T05:16:29.889Z,22.42
2017-10-04T05:18:59.131Z,12.10
2017-10-04T05:21:28.372Z,11.68
2017-10-04T05:23:57.648Z,8.90
2017-10-04T05:26:26.896Z,10.65
2017-10-04T05:28:56.135Z,8.30
2017-10-04T05:31:25.403Z,8.55
2017-10-04T05:33:54.650Z,8.77
2017-10-04T05:36:23.906Z,8.60
2017-10-04T05:38:53.951Z,8.70
2017-10-04T05:41:23.187Z,10.82
2017-10-04T05:43:52.514Z,8.60
2017-10-04T05:46:21.767Z,12.73
2017-10-04T05:48:51.015Z,14.40
2017-10-04T05:51:20.281Z,14.20
2017-10-04T05:53:49.527Z,11.63
2017-10-04T05:56:19.646Z,18.65
2017-10-04T05:58:49.664Z,13.82
2017-10-04T06:01:19.715Z,13.77
2017-10-04T06:03:48.964Z,14.68
2017-10-04T06:06:18.214Z,12.25
2017-10-04T06:08:47.874Z,10.52
2017-10-04T06:11:17.214Z,13.85
2017-10-04T06:13:46.471Z,16.98
2017-10-04T06:16:15.760Z,11.45
2017-10-04T06:18:44.999Z,17.23
2017-10-04T06:21:15.049Z,10.90
2017-10-04T06:23:44.295Z,11.50
2017-10-04T06:26:13.553Z,14.73
2017-10-04T06:28:42.811Z,14.23
2017-10-04T06:31:12.829Z,11.02
2017-10-04T06:33:42.867Z,13.10
2017-10-04T06:36:12.129Z,9.23
2017-10-04T06:38:41.386Z,9.38
2017-10-04T06:41:10.650Z,16.35
2017-10-04T06:43:40.666Z,14.63
2017-10-04T06:46:10.705Z,11.02
2017-10-04T06:48:39.955Z,13.20
2017-10-04T06:51:09.202Z,11.77
2017-10-04T06:53:38.489Z,15.18
2017-10-04T06:56:08.503Z,14.55
2017-10-04T06:58:38.558Z,17.17
2017-10-04T07:01:07.802Z,13.20
2017-10-04T07:03:37.049Z,12.00
2017-10-04T07:06:06.310Z,21.35
2017-10-04T07:08:35.555Z,17.15
2017-10-04T07:11:04.851Z,18.75
2017-10-04T07:13:34.211Z,17.73
2017-10-04T07:16:03.473Z,12.65
2017-10-04T07:18:32.726Z,12.00
2017-10-04T07:21:02.771Z,22.15
2017-10-04T07:23:32.007Z,26.33
2017-10-04T07:26:01.275Z,11.50
2017-10-04T07:28:30.549Z,14.18
2017-10-04T07:30:59.800Z,15.60
2017-10-04T07:33:29.051Z,17.05
2017-10-04T07:35:58.331Z,26.95
2017-10-04T07:38:27.575Z,17.35
2017-10-04T07:40:56.823Z,24.12
2017-10-04T07:43:26.118Z,17.73
2017-10-04T07:45:55.356Z,19.85
2017-10-04T07:48:24.631Z,13.52
2017-10-04T07:50:53.898Z,16.35
2017-10-04T07:53:23.148Z,16.15
2017-10-04T07:55:53.211Z,23.98
2017-10-04T07:58:22.465Z,24.15
2017-10-04T08:00:52.538Z,16.02
2017-10-04T08:03:21.867Z,15.63
2017-10-04T08:05:51.132Z,10.77
2017-10-04T08:08:20.471Z,13.75
2017-10-04T08:10:49.759Z,9.60
2017-10-04T08:13:19.014Z,15.57
2017-10-04T08:15:48.499Z,20.33
2017-10-04T08:18:17.784Z,19.87
2017-10-04T08:20:47.471Z,14.85
2017-10-04T08:23:17.490Z,11.38
2017-10-04T08:25:47.529Z,13.20
2017-10-04T08:28:16.784Z,11.48
2017-10-04T08:30:46.111Z,14.00
2017-10-04T08:33:16.110Z,15.45
2017-10-04T08:35:45.603Z,14.18
2017-10-04T08:38:15.625Z,15.55
2017-10-04T08:40:45.747Z,13.57
2017-10-04T08:43:15.020Z,12.20
2017-10-04T08:45:44.293Z,17.58
2017-10-04T08:48:31.231Z,13.65
2017-10-04T08:51:00.477Z,19.50
2017-10-04T08:53:29.785Z,13.02
2017-10-04T08:55:59.804Z,11.35
2017-10-04T08:58:29.056Z,18.02
2017-10-04T09:00:59.899Z,10.95
2017-10-04T09:03:29.153Z,13.57
2017-10-04T09:06:04.332Z,18.80
2017-10-04T09:08:34.443Z,17.33
2017-10-04T09:11:03.725Z,19.77
2017-10-04T09:13:32.971Z,10.63
2017-10-04T09:16:03.118Z,13.13
2017-10-04T09:18:32.371Z,10.63
2017-10-04T09:21:01.631Z,13.50
2017-10-04T09:23:30.921Z,15.52
2017-10-04T09:26:00.171Z,11.20
2017-10-04T09:28:29.431Z,13.35
2017-10-04T09:30:58.757Z,13.57
2017-10-04T09:33:28.004Z,11.82
2017-10-04T09:35:57.274Z,17.40
2017-10-04T09:38:26.530Z,13.52
2017-10-04T09:40:55.785Z,21.00
2017-10-04T09:43:25.075Z,15.73
2017-10-04T09:45:54.334Z,9.05
2017-10-04T09:48:23.587Z,7.95
2017-10-04T09:50:53.628Z,7.55
2017-10-04T09:53:22.887Z,5.82
2017-10-04T09:55:52.141Z,6.05
2017-10-04T09:58:21.423Z,5.72
2017-10-04T10:00:50.672Z,5.60
2017-10-04T10:03:19.916Z,7.75
2017-10-04T10:05:49.218Z,6.47
2017-10-04T10:08:19.225Z,4.78
2017-10-04T10:10:48.499Z,7.78
2017-10-04T10:13:17.750Z,3.45
2017-10-04T10:15:47.006Z,9.23
2017-10-04T10:18:16.400Z,5.32
2017-10-04T10:20:46.476Z,9.30
2017-10-04T10:23:15.751Z,7.10
2017-10-04T10:25:45.792Z,6.35
2017-10-04T10:28:15.069Z,4.25
2017-10-04T10:30:45.085Z,10.05
2017-10-04T10:33:14.364Z,5.25
2017-10-04T10:35:43.619Z,3.58
2017-10-04T10:38:12.869Z,3.25
2017-10-04T10:40:42.160Z,4.03
2017-10-04T10:43:11.404Z,9.48
2017-10-04T10:45:40.652Z,7.65
2017-10-04T10:48:09.940Z,6.07
2017-10-04T10:50:39.188Z,4.45
2017-10-04T10:53:09.289Z,6.20
2017-10-04T10:55:38.546Z,7.65
2017-10-04T10:58:07.784Z,8.05
2017-10-04T11:00:37.057Z,5.50
2017-10-04T11:03:06.314Z,4.75
2017-10-04T11:05:35.546Z,5.57
2017-10-04T11:08:04.827Z,6.90
2017-10-04T11:10:34.079Z,6.40
2017-10-04T11:13:03.340Z,6.18
2017-10-04T11:15:32.615Z,3.90
2017-10-04T11:18:01.864Z,4.90
2017-10-04T11:20:31.116Z,6.50
2017-10-04T11:23:00.404Z,3.00
2017-10-04T11:25:30.425Z,7.07
2017-10-04T11:27:59.723Z,6.95
2017-10-04T11:30:29.777Z,8.23
2017-10-04T11:32:59.023Z,5.60
2017-10-04T11:35:28.326Z,5.12
2017-10-04T11:37:57.615Z,6.78
2017-10-04T11:40:26.872Z,4.70
2017-10-04T11:42:56.969Z,5.45
2017-10-04T11:45:27.015Z,5.93
2017-10-04T11:47:56.285Z,5.87
2017-10-04T11:50:26.324Z,9.88
2017-10-04T11:52:55.563Z,5.62
2017-10-04T11:55:24.807Z,9.38
2017-10-04T11:57:54.839Z,6.93
2017-10-04T12:00:24.102Z,8.85
2017-10-04T12:02:53.350Z,5.28
2017-10-04T12:05:23.370Z,2.90
2017-10-04T12:07:52.607Z,4.07
2017-10-04T12:10:22.148Z,4.32
2017-10-04T12:12:52.155Z,3.70
2017-10-04T12:15:22.204Z,5.50
2017-10-04T12:17:51.473Z,5.43
2017-10-04T12:20:21.512Z,4.07
2017-10-04T12:22:50.764Z,10.70
2017-10-04T12:25:20.006Z,5.45
2017-10-04T12:27:49.323Z,2.97
2017-10-04T12:30:18.606Z,6.35
2017-10-04T12:32:48.676Z,13.27
2017-10-04T12:35:18.136Z,2.70
2017-10-04T12:37:47.424Z,3.83
2017-10-04T12:40:16.684Z,6.30
2017-10-04T12:42:45.957Z,2.12
2017-10-04T12:45:15.267Z,2.67
2017-10-04T12:47:44.536Z,4.35
2017-10-04T12:50:13.827Z,9.48
2017-10-04T12:52:43.844Z,2.70
2017-10-04T12:55:14.022Z,3.80
2017-10-04T12:57:44.207Z,3.67
2017-10-04T13:00:14.652Z,6.07
2017-10-04T13:02:43.869Z,4.25
2017-10-04T13:05:13.168Z,4.90
2017-10-04T13:07:42.415Z,5.45
2017-10-04T13:10:11.655Z,9.00
2017-10-04T13:12:40.968Z,4.62
2017-10-04T13:15:10.360Z,8.32
2017-10-04T13:17:39.644Z,5.40
2017-10-04T13:20:09.850Z,3.95
2017-10-04T13:22:39.104Z,5.30
2017-10-04T13:25:08.344Z,3.85
2017-10-04T13:27:37.912Z,3.40
2017-10-04T13:30:07.198Z,3.70
2017-10-04T13:32:36.445Z,3.85
2017-10-04T13:35:05.720Z,3.97
2017-10-04T13:37:35.002Z,4.37
2017-10-04T13:40:05.013Z,3.60
2017-10-04T13:42:34.484Z,6.18
2017-10-04T13:45:03.688Z,4.22
2017-10-04T13:47:32.938Z,4.93
2017-10-04T13:50:02.240Z,4.10
2017-10-04T13:52:31.470Z,4.47
2017-10-04T13:55:02.236Z,4.18
2017-10-04T13:57:31.467Z,2.20
2017-10-04T14:00:00.710Z,4.95
2017-10-04T14:02:29.972Z,6.75
2017-10-04T14:04:59.227Z,5.40
2017-10-04T14:07:28.468Z,3.85
2017-10-04T14:09:57.763Z,6.93
2017-10-04T14:12:27.881Z,3.35
2017-10-04T14:14:57.139Z,4.32
2017-10-04T14:17:26.405Z,2.65
2017-10-04T14:19:55.642Z,5.90
2017-10-04T14:22:24.892Z,4.35
2017-10-04T14:24:54.163Z,4.03
2017-10-04T14:27:23.403Z,5.40
2017-10-04T14:29:52.643Z,2.72
2017-10-04T14:32:21.927Z,3.33
2017-10-04T14:34:51.167Z,3.87
2017-10-04T14:37:20.423Z,6.47
2017-10-04T14:39:50.317Z,7.68
2017-10-04T14:42:19.558Z,6.15
2017-10-04T14:44:48.808Z,4.65
2017-10-04T14:47:18.065Z,9.13
2017-10-04T14:49:47.351Z,3.53
2017-10-04T14:52:16.812Z,3.78
2017-10-04T14:54:46.044Z,7.03
2017-10-04T14:57:15.443Z,2.90
2017-10-04T14:59:45.807Z,5.20
2017-10-04T15:02:16.754Z,3.58
2017-10-04T15:04:46.087Z,5.87
2017-10-04T15:07:15.341Z,3.95
2017-10-04T15:09:44.580Z,2.10
2017-10-04T15:12:13.964Z,5.05
2017-10-04T15:14:43.207Z,2.53
2017-10-04T15:17:13.231Z,5.87
2017-10-04T15:19:42.604Z,6.65
2017-10-04T15:22:11.849Z,1.70
2017-10-04T15:24:41.099Z,4.45
2017-10-04T15:27:10.368Z,4.87
2017-10-04T15:29:39.629Z,7.37
2017-10-04T15:32:09.664Z,5.28
2017-10-04T15:34:38.915Z,4.25
2017-10-04T15:37:08.192Z,5.50
2017-10-04T15:39:37.441Z,2.85
2017-10-04T15:42:06.683Z,5.55
2017-10-04T15:44:35.992Z,3.08
2017-10-04T15:47:05.227Z,4.20
2017-10-04T15:49:34.469Z,7.32
2017-10-04T15:52:03.735Z,5.62
2017-10-04T15:54:33.028Z,5.80
2017-10-04T15:57:02.270Z,3.10
2017-10-04T15:59:31.511Z,6.55
2017-10-04T16:02:00.794Z,2.80
2017-10-04T16:04:30.040Z,3.20
2017-10-04T16:06:59.272Z,3.30
2017-10-04T16:09:28.551Z,4.05
2017-10-04T16:11:58.568Z,2.80
2017-10-04T16:14:28.582Z,3.40
2017-10-04T16:16:58.615Z,4.07
2017-10-04T16:19:27.885Z,4.40
2017-10-04T16:21:57.226Z,5.00
2017-10-04T16:24:27.372Z,4.15
2017-10-04T16:26:56.728Z,4.32
2017-10-04T16:29:26.040Z,8.00
2017-10-04T16:31:55.313Z,3.65
2017-10-04T16:34:24.623Z,4.47
2017-10-04T16:36:54.697Z,5.55
2017-10-04T16:39:23.928Z,3.90
2017-10-04T16:41:53.170Z,6.45
2017-10-04T16:44:22.463Z,3.45
2017-10-04T16:46:51.711Z,4.80
2017-10-04T16:49:20.991Z,4.35
2017-10-04T16:51:50.266Z,4.80
2017-10-04T16:54:20.272Z,11.00
2017-10-04T16:56:49.608Z,8.18
2017-10-04T16:59:18.835Z,6.43
2017-10-04T17:01:48.143Z,5.45
2017-10-04T17:04:17.607Z,8.13
2017-10-04T17:06:46.880Z,6.90
2017-10-04T17:09:16.164Z,4.85
2017-10-04T17:11:45.431Z,6.00
2017-10-04T17:14:14.675Z,4.22
2017-10-04T17:16:43.923Z,10.57
2017-10-04T17:19:13.367Z,6.50
2017-10-04T17:21:42.678Z,5.72
2017-10-04T17:24:11.918Z,7.50
2017-10-04T17:26:41.263Z,4.80
2017-10-04T17:29:10.573Z,5.97
2017-10-04T17:31:39.852Z,9.52
2017-10-04T17:34:09.088Z,4.57
2017-10-04T17:36:39.115Z,8.35
2017-10-04T17:39:09.120Z,5.72
2017-10-04T17:41:39.148Z,6.53
2017-10-04T17:44:09.159Z,5.87
2017-10-04T17:46:39.200Z,8.27
2017-10-04T17:49:08.463Z,12.40
2017-10-04T17:51:37.725Z,11.18
2017-10-04T17:54:07.001Z,8.10
2017-10-04T17:56:36.274Z,11.05
2017-10-04T17:59:06.489Z,17.12
2017-10-04T18:01:35.731Z,10.57
2017-10-04T18:04:04.976Z,7.07
2017-10-04T18:06:34.259Z,11.40
2017-10-04T18:09:03.507Z,7.90
2017-10-04T18:11:33.563Z,6.75
2017-10-04T18:14:02.787Z,6.25
2017-10-04T18:16:32.027Z,5.87
2017-10-04T18:19:02.067Z,7.62
2017-10-04T18:21:31.303Z,7.30
2017-10-04T18:24:00.572Z,4.20
2017-10-04T18:26:29.835Z,7.47
2017-10-04T18:28:59.851Z,6.20
2017-10-04T18:31:29.945Z,6.65
2017-10-04T18:33:59.188Z,8.82
2017-10-04T18:36:28.454Z,6.30
2017-10-04T18:38:57.747Z,7.62
2017-10-04T18:41:27.036Z,4.60
2017-10-04T18:43:56.479Z,9.00
2017-10-04T18:46:26.488Z,6.07
2017-10-04T18:48:55.944Z,6.90
2017-10-04T18:51:25.243Z,6.18
2017-10-04T18:53:54.479Z,7.62
2017-10-04T18:56:23.781Z,7.75
2017-10-04T18:58:53.016Z,6.05
2017-10-04T19:01:23.364Z,8.18
2017-10-04T19:03:52.652Z,7.82
2017-10-04T19:06:21.900Z,6.87
2017-10-04T19:08:51.158Z,5.43
2017-10-04T19:11:20.450Z,4.40
2017-10-04T19:13:49.755Z,7.60
2017-10-04T19:16:18.997Z,8.20
2017-10-04T19:18:48.242Z,4.03
2017-10-04T19:21:17.509Z,4.95
2017-10-04T19:23:46.744Z,5.78
2017-10-04T19:26:16.828Z,7.55
2017-10-04T19:28:46.075Z,10.20
2017-10-04T19:31:16.152Z,8.45
2017-10-04T19:33:45.407Z,10.20
2017-10-04T19:36:14.658Z,5.43
2017-10-04T19:38:44.687Z,5.80
2017-10-04T19:41:14.699Z,6.65
2017-10-04T19:43:44.738Z,4.70
2017-10-04T19:46:13.989Z,6.07
2017-10-04T19:48:43.227Z,9.13
2017-10-04T19:51:13.308Z,3.78
2017-10-04T19:53:42.548Z,4.90
2017-10-04T19:56:12.611Z,4.80
2017-10-04T19:58:41.891Z,6.32
2017-10-04T20:01:11.132Z,6.32
2017-10-04T20:03:40.409Z,4.00
2017-10-04T20:06:09.652Z,8.25
2017-10-04T20:08:39.700Z,5.10
2017-10-04T20:11:08.941Z,6.87
2017-10-04T20:13:38.195Z,4.82
2017-10-04T20:16:07.480Z,5.25
2017-10-04T20:18:37.482Z,4.62
2017-10-04T20:21:07.388Z,12.35
2017-10-04T20:23:36.627Z,4.90
2017-10-04T20:26:05.891Z,7.87
2017-10-04T20:28:35.136Z,5.97
2017-10-04T20:31:04.373Z,4.05
2017-10-04T20:33:34.663Z,7.22
2017-10-04T20:36:03.920Z,4.30
2017-10-04T20:38:33.244Z,6.18
2017-10-04T20:41:02.708Z,4.53
2017-10-04T20:43:31.958Z,7.80
2017-10-04T20:46:01.227Z,8.65
2017-10-04T20:48:30.500Z,8.30
2017-10-04T20:50:59.831Z,5.40
2017-10-04T20:53:29.895Z,4.82
2017-10-04T20:56:00.255Z,6.12
2017-10-04T20:58:30.432Z,5.93
2017-10-04T21:00:59.676Z,4.75
2017-10-04T21:03:28.920Z,4.60
2017-10-04T21:05:58.993Z,9.68
2017-10-04T21:08:28.271Z,6.70
2017-10-04T21:10:57.521Z,9.93
2017-10-04T21:13:27.565Z,8.93
2017-10-04T21:15:56.854Z,17.55
2017-10-04T21:18:26.116Z,10.43
2017-10-04T21:20:55.379Z,13.57
2017-10-04T21:23:24.674Z,14.00
2017-10-04T21:25:53.899Z,16.65
2017-10-04T21:28:23.209Z,12.75
2017-10-04T21:30:52.485Z,7.65
2017-10-04T21:33:21.740Z,6.55
2017-10-04T21:35:51.791Z,6.30
2017-10-04T21:38:21.036Z,5.25
2017-10-04T21:40:50.271Z,6.85
2017-10-04T21:43:19.573Z,9.52
2017-10-04T21:45:49.003Z,5.07
2017-10-04T21:48:18.247Z,5.07
2017-10-04T21:50:47.683Z,5.68
2017-10-04T21:53:16.940Z,6.47
2017-10-04T21:55:46.171Z,5.03
2017-10-04T21:58:16.227Z,5.80
2017-10-04T22:00:45.495Z,6.03
2017-10-04T22:03:15.524Z,3.17
2017-10-04T22:05:44.767Z,7.57
2017-10-04T22:08:14.131Z,4.10
2017-10-04T22:10:43.491Z,7.90
2017-10-04T22:13:13.502Z,8.25
2017-10-04T22:15:42.768Z,4.85
2017-10-04T22:18:12.012Z,4.72
2017-10-04T22:20:41.267Z,8.90
2017-10-04T22:23:10.521Z,7.05
2017-10-04T22:25:40.524Z,7.12
2017-10-04T22:28:09.788Z,6.30
2017-10-04T22:30:39.027Z,9.43
2017-10-04T22:33:08.317Z,8.18
2017-10-04T22:35:37.621Z,6.85
2017-10-04T22:38:06.856Z,7.20
2017-10-04T22:40:36.897Z,7.72
2017-10-04T22:43:06.188Z,6.93
2017-10-04T22:45:35.392Z,5.87
2017-10-04T22:48:04.672Z,4.20
2017-10-04T22:50:33.906Z,4.75
2017-10-04T22:53:03.160Z,3.72
2017-10-04T22:55:32.488Z,5.80
2017-10-04T22:58:01.740Z,10.15
2017-10-04T23:00:30.991Z,5.47
2017-10-04T23:03:00.273Z,9.23
2017-10-04T23:05:30.284Z,9.05
2017-10-04T23:08:00.318Z,10.32
2017-10-04T23:10:29.578Z,10.05
2017-10-04T23:12:58.823Z,6.50
2017-10-04T23:15:28.114Z,10.38
2017-10-04T23:17:57.343Z,6.32
2017-10-04T23:20:26.596Z,25.02
2017-10-04T23:22:56.630Z,7.62
2017-10-04T23:25:26.648Z,7.75
2017-10-04T23:27:55.912Z,6.75
2017-10-04T23:30:25.197Z,7.30
2017-10-04T23:32:54.477Z,9.82
2017-10-04T23:35:23.720Z,7.65
2017-10-04T23:37:52.981Z,5.53
2017-10-04T23:40:22.244Z,9.25
2017-10-04T23:42:52.252Z,5.57
2017-10-04T23:45:21.687Z,4.93
2017-10-04T23:47:50.940Z,8.30
2017-10-04T23:50:20.184Z,6.75
2017-10-04T23:52:49.460Z,5.10
2017-10-04T23:55:19.471Z,7.65
2017-10-04T23:57:49.694Z,9.57
